sensor_id;sensor_type;location;lat;lon;timestamp;temperature;humidity
17170;DHT22;8700;48.222;16.342;2022-10-03T00:03:06;14.10;99.90
17170;DHT22;8700;48.222;16.342;2022-10-03T00:06:34;14.10;99.90
17170;DHT22;8700;48.222;16.342;2022-10-03T00:10:14;14.10;99.90
17170;DHT22;8700;48.222;16.342;2022-10-03T00:13:45;14.10;99.90
17170;DHT22;8700;48.222;16.342;2022-10-03T00:17:13;13.90;99.90
17170;DHT22;8700;48.222;16.342;2022-10-03T00:20:50;13.80;99.90
17170;DHT22;8700;48.222;16.342;2022-10-03T00:24:22;13.70;99.90
17170;DHT22;8700;48.222;16.342;2022-10-03T00:27:50;13.90;99.90
17170;DHT22;8700;48.222;16.342;2022-10-03T00:31:15;13.80;99.90
17170;DHT22;8700;48.222;16.342;2022-10-03T00:34:45;13.80;99.90
17170;DHT22;8700;48.222;16.342;2022-10-03T00:38:25;13.80;99.90
17170;DHT22;8700;48.222;16.342;2022-10-03T00:46:03;14.10;99.90
17170;DHT22;8700;48.222;16.342;2022-10-03T00:50:06;14.10;99.90
17170;DHT22;8700;48.222;16.342;2022-10-03T00:53:44;13.90;99.90
17170;DHT22;8700;48.222;16.342;2022-10-03T00:57:24;13.90;99.90
17170;DHT22;8700;48.222;16.342;2022-10-03T01:00:51;14.00;99.90
17170;DHT22;8700;48.222;16.342;2022-10-03T01:04:30;14.10;99.90
17170;DHT22;8700;48.222;16.342;2022-10-03T01:08:27;14.00;99.90
17170;DHT22;8700;48.222;16.342;2022-10-03T01:12:25;14.00;99.90
17170;DHT22;8700;48.222;16.342;2022-10-03T01:16:05;14.00;99.90
17170;DHT22;8700;48.222;16.342;2022-10-03T01:19:46;14.00;99.90
17170;DHT22;8700;48.222;16.342;2022-10-03T01:27:20;13.80;99.90
17170;DHT22;8700;48.222;16.342;2022-10-03T01:30:49;13.80;99.90
17170;DHT22;8700;48.222;16.342;2022-10-03T01:34:17;14.00;99.90
17170;DHT22;8700;48.222;16.342;2022-10-03T01:37:47;14.00;99.90
17170;DHT22;8700;48.222;16.342;2022-10-03T01:41:19;14.10;99.90
17170;DHT22;8700;48.222;16.342;2022-10-03T01:44:54;14.30;99.90
17170;DHT22;8700;48.222;16.342;2022-10-03T01:48:30;14.30;99.90
17170;DHT22;8700;48.222;16.342;2022-10-03T01:51:59;14.10;99.90
17170;DHT22;8700;48.222;16.342;2022-10-03T01:55:28;14.10;99.90
17170;DHT22;8700;48.222;16.342;2022-10-03T01:58:56;14.00;99.90
17170;DHT22;8700;48.222;16.342;2022-10-03T02:02:27;14.00;99.90
17170;DHT22;8700;48.222;16.342;2022-10-03T02:05:57;14.10;99.90
17170;DHT22;8700;48.222;16.342;2022-10-03T02:09:28;14.20;99.90
17170;DHT22;8700;48.222;16.342;2022-10-03T02:13:00;14.10;99.90
17170;DHT22;8700;48.222;16.342;2022-10-03T02:16:37;14.20;99.90
17170;DHT22;8700;48.222;16.342;2022-10-03T02:20:07;14.20;99.90
17170;DHT22;8700;48.222;16.342;2022-10-03T02:23:39;14.10;99.90
17170;DHT22;8700;48.222;16.342;2022-10-03T02:35:49;14.00;99.90
17170;DHT22;8700;48.222;16.342;2022-10-03T02:47:34;14.10;99.90
17170;DHT22;8700;48.222;16.342;2022-10-03T02:55:30;13.90;99.90
17170;DHT22;8700;48.222;16.342;2022-10-03T03:11:22;14.00;99.90
17170;DHT22;8700;48.222;16.342;2022-10-03T03:15:21;13.90;99.90
17170;DHT22;8700;48.222;16.342;2022-10-03T03:19:08;14.00;99.90
17170;DHT22;8700;48.222;16.342;2022-10-03T03:22:45;13.70;99.90
17170;DHT22;8700;48.222;16.342;2022-10-03T03:26:24;13.80;99.90
17170;DHT22;8700;48.222;16.342;2022-10-03T03:29:53;13.80;99.90
17170;DHT22;8700;48.222;16.342;2022-10-03T03:33:27;13.70;99.90
17170;DHT22;8700;48.222;16.342;2022-10-03T03:36:57;13.90;99.90
17170;DHT22;8700;48.222;16.342;2022-10-03T03:40:38;13.90;99.90
17170;DHT22;8700;48.222;16.342;2022-10-03T03:44:23;14.00;99.90
17170;DHT22;8700;48.222;16.342;2022-10-03T03:47:56;13.90;99.90
17170;DHT22;8700;48.222;16.342;2022-10-03T03:51:26;13.70;99.90
17170;DHT22;8700;48.222;16.342;2022-10-03T03:55:14;13.80;99.90
17170;DHT22;8700;48.222;16.342;2022-10-03T03:58:39;13.80;99.90
17170;DHT22;8700;48.222;16.342;2022-10-03T04:02:18;13.80;99.90
17170;DHT22;8700;48.222;16.342;2022-10-03T04:06:01;13.80;99.90
17170;DHT22;8700;48.222;16.342;2022-10-03T04:13:38;13.80;99.90
17170;DHT22;8700;48.222;16.342;2022-10-03T04:17:21;13.70;99.90
17170;DHT22;8700;48.222;16.342;2022-10-03T04:21:26;13.70;99.90
17170;DHT22;8700;48.222;16.342;2022-10-03T04:25:18;13.50;99.90
17170;DHT22;8700;48.222;16.342;2022-10-03T04:29:07;13.40;99.90
17170;DHT22;8700;48.222;16.342;2022-10-03T04:32:55;13.60;99.90
17170;DHT22;8700;48.222;16.342;2022-10-03T04:36:41;13.60;99.90
17170;DHT22;8700;48.222;16.342;2022-10-03T04:40:22;13.70;99.90
17170;DHT22;8700;48.222;16.342;2022-10-03T04:43:52;13.60;99.90
17170;DHT22;8700;48.222;16.342;2022-10-03T04:47:25;13.40;99.90
17170;DHT22;8700;48.222;16.342;2022-10-03T04:50:59;13.60;99.90
17170;DHT22;8700;48.222;16.342;2022-10-03T04:54:29;13.60;99.90
17170;DHT22;8700;48.222;16.342;2022-10-03T04:57:58;13.70;99.90
17170;DHT22;8700;48.222;16.342;2022-10-03T05:01:26;13.70;99.90
17170;DHT22;8700;48.222;16.342;2022-10-03T05:08:46;13.70;99.90
17170;DHT22;8700;48.222;16.342;2022-10-03T05:12:14;13.80;99.90
17170;DHT22;8700;48.222;16.342;2022-10-03T05:15:43;13.80;99.90
17170;DHT22;8700;48.222;16.342;2022-10-03T05:19:32;13.90;99.90
17170;DHT22;8700;48.222;16.342;2022-10-03T05:23:00;13.80;99.90
17170;DHT22;8700;48.222;16.342;2022-10-03T05:26:33;13.80;99.90
17170;DHT22;8700;48.222;16.342;2022-10-03T05:30:03;13.90;99.90
17170;DHT22;8700;48.222;16.342;2022-10-03T05:33:36;13.90;99.90
17170;DHT22;8700;48.222;16.342;2022-10-03T05:37:25;13.90;99.90
17170;DHT22;8700;48.222;16.342;2022-10-03T05:41:01;13.80;99.90
17170;DHT22;8700;48.222;16.342;2022-10-03T05:44:36;13.90;99.90
17170;DHT22;8700;48.222;16.342;2022-10-03T05:48:14;14.00;99.90
17170;DHT22;8700;48.222;16.342;2022-10-03T05:52:01;14.10;99.90
17170;DHT22;8700;48.222;16.342;2022-10-03T05:55:33;14.20;99.90
17170;DHT22;8700;48.222;16.342;2022-10-03T05:59:25;14.20;99.90
17170;DHT22;8700;48.222;16.342;2022-10-03T06:03:10;14.00;99.90
17170;DHT22;8700;48.222;16.342;2022-10-03T06:06:48;13.90;99.90
17170;DHT22;8700;48.222;16.342;2022-10-03T06:10:32;14.00;99.90
17170;DHT22;8700;48.222;16.342;2022-10-03T06:14:18;14.10;99.90
17170;DHT22;8700;48.222;16.342;2022-10-03T06:17:56;14.30;99.90
17170;DHT22;8700;48.222;16.342;2022-10-03T06:25:55;14.30;99.90
17170;DHT22;8700;48.222;16.342;2022-10-03T06:29:44;14.20;99.90
17170;DHT22;8700;48.222;16.342;2022-10-03T06:37:48;14.30;99.90
17170;DHT22;8700;48.222;16.342;2022-10-03T06:46:06;14.70;99.90
17170;DHT22;8700;48.222;16.342;2022-10-03T06:50:01;14.90;99.90
17170;DHT22;8700;48.222;16.342;2022-10-03T06:53:58;14.90;99.90
17170;DHT22;8700;48.222;16.342;2022-10-03T06:57:38;14.80;99.90
17170;DHT22;8700;48.222;16.342;2022-10-03T07:13:23;15.40;99.90
17170;DHT22;8700;48.222;16.342;2022-10-03T07:17:11;15.60;99.90
17170;DHT22;8700;48.222;16.342;2022-10-03T07:21:03;15.60;99.90
17170;DHT22;8700;48.222;16.342;2022-10-03T07:25:09;15.60;99.90
17170;DHT22;8700;48.222;16.342;2022-10-03T07:29:02;15.80;99.90
17170;DHT22;8700;48.222;16.342;2022-10-03T07:32:43;16.00;99.90
17170;DHT22;8700;48.222;16.342;2022-10-03T07:36:39;16.00;99.90
17170;DHT22;8700;48.222;16.342;2022-10-03T07:40:32;16.00;99.90
17170;DHT22;8700;48.222;16.342;2022-10-03T07:48:07;16.30;99.90
17170;DHT22;8700;48.222;16.342;2022-10-03T07:51:39;16.30;99.90
17170;DHT22;8700;48.222;16.342;2022-10-03T07:55:31;16.30;99.90
17170;DHT22;8700;48.222;16.342;2022-10-03T07:59:16;16.30;99.90
17170;DHT22;8700;48.222;16.342;2022-10-03T08:06:36;16.60;99.90
17170;DHT22;8700;48.222;16.342;2022-10-03T08:10:20;16.50;99.90
17170;DHT22;8700;48.222;16.342;2022-10-03T08:13:59;16.30;99.90
17170;DHT22;8700;48.222;16.342;2022-10-03T08:17:53;16.40;99.90
17170;DHT22;8700;48.222;16.342;2022-10-03T08:21:19;16.30;99.90
17170;DHT22;8700;48.222;16.342;2022-10-03T08:25:09;16.50;99.90
17170;DHT22;8700;48.222;16.342;2022-10-03T08:29:05;16.70;99.90
17170;DHT22;8700;48.222;16.342;2022-10-03T08:32:54;16.60;99.90
17170;DHT22;8700;48.222;16.342;2022-10-03T08:40:59;16.40;99.90
17170;DHT22;8700;48.222;16.342;2022-10-03T08:52:30;16.80;99.90
17170;DHT22;8700;48.222;16.342;2022-10-03T08:55:58;17.30;99.90
17170;DHT22;8700;48.222;16.342;2022-10-03T09:07:39;17.60;99.90
17170;DHT22;8700;48.222;16.342;2022-10-03T09:11:28;17.90;99.90
17170;DHT22;8700;48.222;16.342;2022-10-03T09:15:13;18.20;99.90
17170;DHT22;8700;48.222;16.342;2022-10-03T09:19:07;18.30;99.90
17170;DHT22;8700;48.222;16.342;2022-10-03T09:22:55;18.90;99.90
17170;DHT22;8700;48.222;16.342;2022-10-03T09:30:15;19.70;99.70
17170;DHT22;8700;48.222;16.342;2022-10-03T09:42:14;18.60;99.90
17170;DHT22;8700;48.222;16.342;2022-10-03T09:46:08;19.00;99.90
17170;DHT22;8700;48.222;16.342;2022-10-03T09:53:47;20.70;96.40
17170;DHT22;8700;48.222;16.342;2022-10-03T10:01:19;22.10;93.60
17170;DHT22;8700;48.222;16.342;2022-10-03T10:04:55;21.70;91.60
17170;DHT22;8700;48.222;16.342;2022-10-03T10:24:24;22.50;87.70
17170;DHT22;8700;48.222;16.342;2022-10-03T10:57:09;18.60;92.30
17170;DHT22;8700;48.222;16.342;2022-10-03T11:00:50;18.60;92.80
17170;DHT22;8700;48.222;16.342;2022-10-03T11:16:50;20.30;91.90
17170;DHT22;8700;48.222;16.342;2022-10-03T11:40:23;21.70;85.80
17170;DHT22;8700;48.222;16.342;2022-10-03T11:44:07;20.70;87.50
17170;DHT22;8700;48.222;16.342;2022-10-03T11:47:55;20.40;89.30
17170;DHT22;8700;48.222;16.342;2022-10-03T11:51:34;20.10;88.80
17170;DHT22;8700;48.222;16.342;2022-10-03T11:55:12;19.80;90.30
17170;DHT22;8700;48.222;16.342;2022-10-03T11:58:57;19.50;91.30
17170;DHT22;8700;48.222;16.342;2022-10-03T12:02:41;19.20;92.60
17170;DHT22;8700;48.222;16.342;2022-10-03T12:06:10;18.90;92.10
17170;DHT22;8700;48.222;16.342;2022-10-03T12:10:09;18.80;92.20
17170;DHT22;8700;48.222;16.342;2022-10-03T12:13:36;18.40;93.10
17170;DHT22;8700;48.222;16.342;2022-10-03T12:17:07;18.60;93.70
17170;DHT22;8700;48.222;16.342;2022-10-03T12:20:40;18.60;94.40
17170;DHT22;8700;48.222;16.342;2022-10-03T12:24:23;18.40;95.20
17170;DHT22;8700;48.222;16.342;2022-10-03T12:27:51;18.20;95.70
17170;DHT22;8700;48.222;16.342;2022-10-03T12:31:20;18.20;95.00
17170;DHT22;8700;48.222;16.342;2022-10-03T12:34:50;18.20;95.70
17170;DHT22;8700;48.222;16.342;2022-10-03T12:38:23;18.40;95.50
17170;DHT22;8700;48.222;16.342;2022-10-03T12:42:02;18.10;95.10
17170;DHT22;8700;48.222;16.342;2022-10-03T12:45:31;18.10;96.00
17170;DHT22;8700;48.222;16.342;2022-10-03T12:48:59;18.20;95.70
17170;DHT22;8700;48.222;16.342;2022-10-03T12:52:27;18.30;95.60
17170;DHT22;8700;48.222;16.342;2022-10-03T12:55:58;18.40;95.40
17170;DHT22;8700;48.222;16.342;2022-10-03T12:59:30;18.80;94.90
17170;DHT22;8700;48.222;16.342;2022-10-03T13:03:18;18.70;95.00
17170;DHT22;8700;48.222;16.342;2022-10-03T13:06:52;18.80;94.60
17170;DHT22;8700;48.222;16.342;2022-10-03T13:10:23;18.80;94.20
17170;DHT22;8700;48.222;16.342;2022-10-03T13:14:06;18.70;93.80
17170;DHT22;8700;48.222;16.342;2022-10-03T13:17:35;18.70;94.00
17170;DHT22;8700;48.222;16.342;2022-10-03T13:21:04;18.80;93.60
17170;DHT22;8700;48.222;16.342;2022-10-03T13:24:37;18.80;93.20
17170;DHT22;8700;48.222;16.342;2022-10-03T13:28:11;18.80;93.30
17170;DHT22;8700;48.222;16.342;2022-10-03T13:31:36;18.80;93.50
17170;DHT22;8700;48.222;16.342;2022-10-03T13:35:11;19.10;93.50
17170;DHT22;8700;48.222;16.342;2022-10-03T13:39:02;19.20;93.40
17170;DHT22;8700;48.222;16.342;2022-10-03T13:42:34;19.30;93.20
17170;DHT22;8700;48.222;16.342;2022-10-03T13:45:59;19.40;93.70
17170;DHT22;8700;48.222;16.342;2022-10-03T13:49:24;19.50;93.80
17170;DHT22;8700;48.222;16.342;2022-10-03T13:52:56;19.00;94.00
17170;DHT22;8700;48.222;16.342;2022-10-03T13:56:35;18.60;93.80
17170;DHT22;8700;48.222;16.342;2022-10-03T14:00:02;18.20;95.40
17170;DHT22;8700;48.222;16.342;2022-10-03T14:03:35;18.10;95.30
17170;DHT22;8700;48.222;16.342;2022-10-03T14:07:06;17.80;96.70
17170;DHT22;8700;48.222;16.342;2022-10-03T14:10:52;17.60;97.80
17170;DHT22;8700;48.222;16.342;2022-10-03T14:14:40;17.50;97.90
17170;DHT22;8700;48.222;16.342;2022-10-03T14:18:15;17.60;97.70
17170;DHT22;8700;48.222;16.342;2022-10-03T14:21:59;17.40;97.70
17170;DHT22;8700;48.222;16.342;2022-10-03T14:25:27;17.40;98.10
17170;DHT22;8700;48.222;16.342;2022-10-03T14:28:56;17.40;98.60
17170;DHT22;8700;48.222;16.342;2022-10-03T14:32:23;17.50;98.80
17170;DHT22;8700;48.222;16.342;2022-10-03T14:36:07;17.40;99.20
17170;DHT22;8700;48.222;16.342;2022-10-03T14:39:36;17.30;99.80
17170;DHT22;8700;48.222;16.342;2022-10-03T14:43:10;17.20;99.90
17170;DHT22;8700;48.222;16.342;2022-10-03T14:46:39;17.20;99.90
17170;DHT22;8700;48.222;16.342;2022-10-03T14:50:03;17.30;99.90
17170;DHT22;8700;48.222;16.342;2022-10-03T14:53:25;16.70;99.90
17170;DHT22;8700;48.222;16.342;2022-10-03T14:56:51;16.60;99.90
17170;DHT22;8700;48.222;16.342;2022-10-03T15:00:24;16.70;99.90
17170;DHT22;8700;48.222;16.342;2022-10-03T15:03:54;16.90;99.90
17170;DHT22;8700;48.222;16.342;2022-10-03T15:07:31;16.90;99.90
17170;DHT22;8700;48.222;16.342;2022-10-03T15:10:55;16.80;99.90
17170;DHT22;8700;48.222;16.342;2022-10-03T15:14:18;16.60;99.90
17170;DHT22;8700;48.222;16.342;2022-10-03T15:17:48;16.70;99.90
17170;DHT22;8700;48.222;16.342;2022-10-03T15:21:13;16.70;99.90
17170;DHT22;8700;48.222;16.342;2022-10-03T15:24:39;16.60;99.90
17170;DHT22;8700;48.222;16.342;2022-10-03T15:28:05;16.60;99.90
17170;DHT22;8700;48.222;16.342;2022-10-03T15:31:34;16.70;99.90
17170;DHT22;8700;48.222;16.342;2022-10-03T15:34:58;16.70;99.90
17170;DHT22;8700;48.222;16.342;2022-10-03T15:38:23;16.60;99.90
17170;DHT22;8700;48.222;16.342;2022-10-03T15:41:52;16.60;99.90
17170;DHT22;8700;48.222;16.342;2022-10-03T15:45:18;16.60;99.90
17170;DHT22;8700;48.222;16.342;2022-10-03T15:48:43;16.60;99.90
17170;DHT22;8700;48.222;16.342;2022-10-03T15:52:12;16.60;99.90
17170;DHT22;8700;48.222;16.342;2022-10-03T15:55:36;16.40;99.90
17170;DHT22;8700;48.222;16.342;2022-10-03T15:59:05;16.20;99.90
17170;DHT22;8700;48.222;16.342;2022-10-03T16:02:31;15.90;99.90
17170;DHT22;8700;48.222;16.342;2022-10-03T16:06:02;15.60;99.90
17170;DHT22;8700;48.222;16.342;2022-10-03T16:09:27;15.50;99.90
17170;DHT22;8700;48.222;16.342;2022-10-03T16:12:57;15.60;99.90
17170;DHT22;8700;48.222;16.342;2022-10-03T16:16:23;15.60;99.90
17170;DHT22;8700;48.222;16.342;2022-10-03T16:19:50;15.60;99.90
17170;DHT22;8700;48.222;16.342;2022-10-03T16:23:18;15.60;99.90
17170;DHT22;8700;48.222;16.342;2022-10-03T16:26:49;15.50;99.90
17170;DHT22;8700;48.222;16.342;2022-10-03T16:30:19;15.50;99.90
17170;DHT22;8700;48.222;16.342;2022-10-03T16:33:48;15.50;99.90
17170;DHT22;8700;48.222;16.342;2022-10-03T16:37:16;15.40;99.90
17170;DHT22;8700;48.222;16.342;2022-10-03T16:40:40;15.10;99.90
17170;DHT22;8700;48.222;16.342;2022-10-03T16:44:03;15.30;99.90
17170;DHT22;8700;48.222;16.342;2022-10-03T16:47:32;15.00;99.90
17170;DHT22;8700;48.222;16.342;2022-10-03T16:50:54;15.10;99.90
17170;DHT22;8700;48.222;16.342;2022-10-03T16:54:17;15.00;99.90
17170;DHT22;8700;48.222;16.342;2022-10-03T16:57:44;14.90;99.90
17170;DHT22;8700;48.222;16.342;2022-10-03T17:01:09;14.90;99.90
17170;DHT22;8700;48.222;16.342;2022-10-03T17:04:36;15.10;99.90
17170;DHT22;8700;48.222;16.342;2022-10-03T17:07:58;15.10;99.90
17170;DHT22;8700;48.222;16.342;2022-10-03T17:11:22;15.10;99.90
17170;DHT22;8700;48.222;16.342;2022-10-03T17:14:50;14.90;99.90
17170;DHT22;8700;48.222;16.342;2022-10-03T17:18:19;15.00;99.90
17170;DHT22;8700;48.222;16.342;2022-10-03T17:21:46;14.80;99.90
17170;DHT22;8700;48.222;16.342;2022-10-03T17:25:33;14.90;99.90
17170;DHT22;8700;48.222;16.342;2022-10-03T17:29:04;14.90;99.90
17170;DHT22;8700;48.222;16.342;2022-10-03T17:32:35;14.80;99.90
17170;DHT22;8700;48.222;16.342;2022-10-03T17:36:04;14.60;99.90
17170;DHT22;8700;48.222;16.342;2022-10-03T17:43:18;14.70;99.90
17170;DHT22;8700;48.222;16.342;2022-10-03T17:46:45;14.60;99.90
17170;DHT22;8700;48.222;16.342;2022-10-03T17:50:14;14.60;99.90
17170;DHT22;8700;48.222;16.342;2022-10-03T17:53:37;14.60;99.90
17170;DHT22;8700;48.222;16.342;2022-10-03T17:57:03;14.80;99.90
17170;DHT22;8700;48.222;16.342;2022-10-03T18:00:28;14.80;99.90
17170;DHT22;8700;48.222;16.342;2022-10-03T18:03:54;14.70;99.90
17170;DHT22;8700;48.222;16.342;2022-10-03T18:07:19;14.70;99.90
17170;DHT22;8700;48.222;16.342;2022-10-03T18:10:46;14.60;99.90
17170;DHT22;8700;48.222;16.342;2022-10-03T18:14:14;14.60;99.90
17170;DHT22;8700;48.222;16.342;2022-10-03T18:18:01;14.80;99.90
17170;DHT22;8700;48.222;16.342;2022-10-03T18:21:33;14.70;99.90
17170;DHT22;8700;48.222;16.342;2022-10-03T18:25:04;14.60;99.90
17170;DHT22;8700;48.222;16.342;2022-10-03T18:28:44;14.80;99.90
17170;DHT22;8700;48.222;16.342;2022-10-03T18:32:12;14.70;99.90
17170;DHT22;8700;48.222;16.342;2022-10-03T18:35:38;14.70;99.90
17170;DHT22;8700;48.222;16.342;2022-10-03T18:39:04;14.60;99.90
17170;DHT22;8700;48.222;16.342;2022-10-03T18:42:28;14.70;99.90
17170;DHT22;8700;48.222;16.342;2022-10-03T18:45:54;14.70;99.90
17170;DHT22;8700;48.222;16.342;2022-10-03T18:49:21;14.60;99.90
17170;DHT22;8700;48.222;16.342;2022-10-03T18:52:49;14.60;99.90
17170;DHT22;8700;48.222;16.342;2022-10-03T18:56:18;14.50;99.90
17170;DHT22;8700;48.222;16.342;2022-10-03T18:59:48;14.50;99.90
17170;DHT22;8700;48.222;16.342;2022-10-03T19:03:14;14.70;99.90
17170;DHT22;8700;48.222;16.342;2022-10-03T19:06:40;14.80;99.90
17170;DHT22;8700;48.222;16.342;2022-10-03T19:10:20;14.80;99.90
17170;DHT22;8700;48.222;16.342;2022-10-03T19:13:46;14.70;99.90
17170;DHT22;8700;48.222;16.342;2022-10-03T19:17:20;14.80;99.90
17170;DHT22;8700;48.222;16.342;2022-10-03T19:20:45;14.90;99.90
17170;DHT22;8700;48.222;16.342;2022-10-03T19:24:13;14.80;99.90
17170;DHT22;8700;48.222;16.342;2022-10-03T19:27:41;14.80;99.90
17170;DHT22;8700;48.222;16.342;2022-10-03T19:31:06;14.60;99.90
17170;DHT22;8700;48.222;16.342;2022-10-03T19:34:35;14.60;99.90
17170;DHT22;8700;48.222;16.342;2022-10-03T19:38:02;14.80;99.90
17170;DHT22;8700;48.222;16.342;2022-10-03T19:41:30;14.80;99.90
17170;DHT22;8700;48.222;16.342;2022-10-03T19:44:54;14.90;99.90
17170;DHT22;8700;48.222;16.342;2022-10-03T19:48:16;14.80;99.90
17170;DHT22;8700;48.222;16.342;2022-10-03T19:51:41;14.90;99.90
17170;DHT22;8700;48.222;16.342;2022-10-03T19:55:09;14.80;99.90
17170;DHT22;8700;48.222;16.342;2022-10-03T19:58:32;14.90;99.90
17170;DHT22;8700;48.222;16.342;2022-10-03T20:01:53;14.90;99.90
17170;DHT22;8700;48.222;16.342;2022-10-03T20:05:17;14.90;99.90
17170;DHT22;8700;48.222;16.342;2022-10-03T20:08:43;14.90;99.90
17170;DHT22;8700;48.222;16.342;2022-10-03T20:12:07;14.90;99.90
17170;DHT22;8700;48.222;16.342;2022-10-03T20:15:36;15.00;99.90
17170;DHT22;8700;48.222;16.342;2022-10-03T20:19:06;15.00;99.90
17170;DHT22;8700;48.222;16.342;2022-10-03T20:22:30;15.10;99.90
17170;DHT22;8700;48.222;16.342;2022-10-03T20:25:58;15.10;99.90
17170;DHT22;8700;48.222;16.342;2022-10-03T20:29:27;15.10;99.90
17170;DHT22;8700;48.222;16.342;2022-10-03T20:32:52;15.00;99.90
17170;DHT22;8700;48.222;16.342;2022-10-03T20:36:18;15.00;99.90
17170;DHT22;8700;48.222;16.342;2022-10-03T20:39:42;15.00;99.90
17170;DHT22;8700;48.222;16.342;2022-10-03T20:43:28;15.20;99.90
17170;DHT22;8700;48.222;16.342;2022-10-03T20:47:00;15.10;99.90
17170;DHT22;8700;48.222;16.342;2022-10-03T20:50:26;15.10;99.90
17170;DHT22;8700;48.222;16.342;2022-10-03T20:53:51;15.10;99.90
17170;DHT22;8700;48.222;16.342;2022-10-03T20:57:16;15.20;99.90
17170;DHT22;8700;48.222;16.342;2022-10-03T21:00:44;15.00;99.90
17170;DHT22;8700;48.222;16.342;2022-10-03T21:04:13;15.00;99.90
17170;DHT22;8700;48.222;16.342;2022-10-03T21:07:40;15.10;99.90
17170;DHT22;8700;48.222;16.342;2022-10-03T21:11:11;15.00;99.90
17170;DHT22;8700;48.222;16.342;2022-10-03T21:14:35;15.00;99.90
17170;DHT22;8700;48.222;16.342;2022-10-03T21:17:58;15.00;99.90
17170;DHT22;8700;48.222;16.342;2022-10-03T21:21:24;15.10;99.90
17170;DHT22;8700;48.222;16.342;2022-10-03T21:24:54;15.00;99.90
17170;DHT22;8700;48.222;16.342;2022-10-03T21:28:24;15.10;99.90
17170;DHT22;8700;48.222;16.342;2022-10-03T21:31:53;15.10;99.90
17170;DHT22;8700;48.222;16.342;2022-10-03T21:35:22;15.20;99.90
17170;DHT22;8700;48.222;16.342;2022-10-03T21:38:48;15.30;99.90
17170;DHT22;8700;48.222;16.342;2022-10-03T21:42:15;15.20;99.90
17170;DHT22;8700;48.222;16.342;2022-10-03T21:45:46;15.30;99.90
17170;DHT22;8700;48.222;16.342;2022-10-03T21:49:35;15.20;99.90
17170;DHT22;8700;48.222;16.342;2022-10-03T21:53:15;15.20;99.90
17170;DHT22;8700;48.222;16.342;2022-10-03T21:56:51;15.20;99.90
17170;DHT22;8700;48.222;16.342;2022-10-03T22:00:17;15.30;99.90
17170;DHT22;8700;48.222;16.342;2022-10-03T22:03:44;15.40;99.90
17170;DHT22;8700;48.222;16.342;2022-10-03T22:07:13;15.30;99.90
17170;DHT22;8700;48.222;16.342;2022-10-03T22:10:38;15.20;99.90
17170;DHT22;8700;48.222;16.342;2022-10-03T22:14:10;15.00;99.90
17170;DHT22;8700;48.222;16.342;2022-10-03T22:17:40;15.20;99.90
17170;DHT22;8700;48.222;16.342;2022-10-03T22:21:08;15.20;99.90
17170;DHT22;8700;48.222;16.342;2022-10-03T22:24:40;15.10;99.90
17170;DHT22;8700;48.222;16.342;2022-10-03T22:28:09;15.10;99.90
17170;DHT22;8700;48.222;16.342;2022-10-03T22:31:40;15.20;99.90
17170;DHT22;8700;48.222;16.342;2022-10-03T22:35:18;15.00;99.90
17170;DHT22;8700;48.222;16.342;2022-10-03T22:38:45;14.80;99.90
17170;DHT22;8700;48.222;16.342;2022-10-03T22:42:07;14.60;99.90
17170;DHT22;8700;48.222;16.342;2022-10-03T22:45:38;14.60;99.90
17170;DHT22;8700;48.222;16.342;2022-10-03T22:49:05;14.50;99.90
17170;DHT22;8700;48.222;16.342;2022-10-03T22:52:33;14.50;99.90
17170;DHT22;8700;48.222;16.342;2022-10-03T22:55:57;14.60;99.90
17170;DHT22;8700;48.222;16.342;2022-10-03T22:59:21;14.60;99.90
17170;DHT22;8700;48.222;16.342;2022-10-03T23:02:49;14.60;99.90
17170;DHT22;8700;48.222;16.342;2022-10-03T23:06:34;14.50;99.90
17170;DHT22;8700;48.222;16.342;2022-10-03T23:10:09;14.60;99.90
17170;DHT22;8700;48.222;16.342;2022-10-03T23:13:36;14.40;99.90
17170;DHT22;8700;48.222;16.342;2022-10-03T23:17:08;14.20;99.90
17170;DHT22;8700;48.222;16.342;2022-10-03T23:20:52;14.10;99.90
17170;DHT22;8700;48.222;16.342;2022-10-03T23:24:24;14.00;99.90
17170;DHT22;8700;48.222;16.342;2022-10-03T23:27:58;13.90;99.90
17170;DHT22;8700;48.222;16.342;2022-10-03T23:31:50;13.90;99.90
17170;DHT22;8700;48.222;16.342;2022-10-03T23:35:14;14.00;99.90
17170;DHT22;8700;48.222;16.342;2022-10-03T23:38:57;14.00;99.90
17170;DHT22;8700;48.222;16.342;2022-10-03T23:42:24;14.00;99.90
17170;DHT22;8700;48.222;16.342;2022-10-03T23:45:48;14.00;99.90
17170;DHT22;8700;48.222;16.342;2022-10-03T23:49:11;13.90;99.90
17170;DHT22;8700;48.222;16.342;2022-10-03T23:52:43;13.90;99.90
17170;DHT22;8700;48.222;16.342;2022-10-03T23:56:29;14.00;99.90
17170;DHT22;8700;48.222;16.342;2022-10-03T23:59:51;14.10;99.90
